Terminal Aerodrome Forecast
Issued by NWS Shreveport, LA

Current Version | Previous Version | Text Only | Print | Product List | Glossary On
Versions: 1 2 3 4 5 6 7 8 9 10 11 12 13 14 15 16 17 18 19
000
FTUS44 KSHV 252341
TAFTYR
TAF
KTYR 252341Z 2600/2624 16004KT P6SM FEW030 BKN050 OVC060
     FM260800 16008KT P6SM OVC015
     FM261600 16013G22KT P6SM BKN035
     FM262100 17014KT P6SM VCTS BKN050CB=

USA.gov is the U.S. government's official web portal to all federal, state and local government web resources and services.